createdAt,value
2023-01-11T00:01:53.648Z,5.53
2023-01-11T00:04:20.692Z,5.53
2023-01-11T00:06:47.325Z,5.54
2023-01-11T00:09:13.996Z,5.51
2023-01-11T00:11:40.562Z,5.49
2023-01-11T00:14:07.094Z,5.47
2023-01-11T00:16:33.617Z,5.47
2023-01-11T00:19:00.123Z,5.48
2023-01-11T00:21:26.840Z,5.43
2023-01-11T00:23:53.449Z,5.42
2023-01-11T00:26:20.067Z,5.41
2023-01-11T00:28:48.780Z,5.36
2023-01-11T00:31:16.053Z,5.35
2023-01-11T00:33:42.984Z,5.33
2023-01-11T00:36:09.788Z,5.28
2023-01-11T00:38:47.118Z,5.26
2023-01-11T00:41:42.402Z,5.22
2023-01-11T00:44:29.699Z,5.25
2023-01-11T00:47:29.369Z,5.28
2023-01-11T00:49:55.877Z,5.26
2023-01-11T00:52:22.570Z,5.25
2023-01-11T00:54:49.495Z,5.26
2023-01-11T00:57:16.074Z,5.32
2023-01-11T00:59:42.633Z,5.40
2023-01-11T01:02:10.449Z,5.40
2023-01-11T01:04:37.710Z,5.39
2023-01-11T01:07:04.874Z,5.32
2023-01-11T01:09:31.686Z,5.27
2023-01-11T01:11:59.115Z,5.26
2023-01-11T01:14:33.275Z,5.20
2023-01-11T01:17:07.227Z,5.12
2023-01-11T01:19:38.348Z,5.11
2023-01-11T01:22:05.112Z,5.07
2023-01-11T01:24:32.569Z,5.11
2023-01-11T01:26:59.476Z,5.07
2023-01-11T01:29:27.266Z,5.10
2023-01-11T01:31:53.883Z,5.10
2023-01-11T01:34:20.423Z,5.05
2023-01-11T01:36:47.012Z,5.04
2023-01-11T01:39:13.813Z,4.96
2023-01-11T01:41:40.574Z,4.99
2023-01-11T01:44:44.860Z,4.97
2023-01-11T01:47:12.660Z,4.96
2023-01-11T01:49:40.754Z,4.89
2023-01-11T01:52:08.890Z,4.84
2023-01-11T01:54:40.941Z,4.79
2023-01-11T01:57:15.293Z,4.76
2023-01-11T01:59:42.063Z,4.74
2023-01-11T02:02:08.601Z,4.72
2023-01-11T02:04:44.286Z,4.70
2023-01-11T02:07:16.393Z,4.70
2023-01-11T02:09:55.361Z,4.70
2023-01-11T02:12:22.686Z,4.62
2023-01-11T02:14:49.540Z,4.66
2023-01-11T02:17:16.205Z,4.59
2023-01-11T02:20:04.528Z,4.62
2023-01-11T02:22:33.699Z,4.58
2023-01-11T02:25:12.806Z,4.55
2023-01-11T02:27:48.117Z,4.54
2023-01-11T02:30:23.475Z,4.46
2023-01-11T02:32:50.000Z,4.51
2023-01-11T02:35:36.631Z,4.54
2023-01-11T02:38:24.599Z,4.55
2023-01-11T02:41:00.965Z,4.49
2023-01-11T02:43:55.221Z,4.42
2023-01-11T02:46:52.996Z,4.27
2023-01-11T02:49:39.563Z,4.19
2023-01-11T02:52:17.460Z,4.22
2023-01-11T02:54:47.957Z,4.25
2023-01-11T02:57:15.673Z,4.27
2023-01-11T02:59:42.345Z,4.31
2023-01-11T03:02:09.847Z,4.37
2023-01-11T03:04:37.574Z,4.38
2023-01-11T03:07:06.838Z,4.38
2023-01-11T03:09:43.278Z,4.33
2023-01-11T03:12:31.213Z,4.33
2023-01-11T03:15:30.531Z,4.27
2023-01-11T03:18:08.902Z,4.21
2023-01-11T03:20:40.849Z,4.13
2023-01-11T03:23:45.056Z,4.07
2023-01-11T03:26:29.819Z,3.99
2023-01-11T03:29:08.576Z,3.97
2023-01-11T03:31:40.716Z,3.90
2023-01-11T03:34:27.016Z,3.76
2023-01-11T03:37:25.514Z,3.72
2023-01-11T03:40:14.248Z,3.67
2023-01-11T03:43:04.258Z,3.73
2023-01-11T03:45:35.695Z,3.70
2023-01-11T03:48:05.023Z,3.75
2023-01-11T03:50:33.899Z,3.81
2023-01-11T03:53:03.693Z,3.82
2023-01-11T03:55:37.017Z,3.79
2023-01-11T03:58:03.710Z,3.79
2023-01-11T04:00:31.642Z,3.78
2023-01-11T04:03:00.580Z,3.79
2023-01-11T04:05:27.137Z,3.86
2023-01-11T04:07:54.550Z,3.88
2023-01-11T04:10:21.114Z,3.86
2023-01-11T04:12:48.748Z,3.79
2023-01-11T04:15:16.251Z,3.85
2023-01-11T04:17:43.107Z,3.89
2023-01-11T04:20:11.036Z,3.83
2023-01-11T04:22:38.424Z,3.80
2023-01-11T04:25:05.392Z,3.69
2023-01-11T04:27:31.979Z,3.58
2023-01-11T04:29:58.489Z,3.45
2023-01-11T04:32:25.009Z,3.38
2023-01-11T04:34:51.599Z,3.41
2023-01-11T04:37:18.190Z,3.51
2023-01-11T04:39:44.729Z,3.58
2023-01-11T04:42:21.330Z,3.64
2023-01-11T04:44:49.466Z,3.69
2023-01-11T04:47:17.279Z,3.77
2023-01-11T04:49:44.230Z,3.84
2023-01-11T04:52:12.397Z,3.90
2023-01-11T04:54:39.391Z,3.93
2023-01-11T04:57:07.188Z,3.93
2023-01-11T04:59:33.761Z,3.85
2023-01-11T05:02:00.337Z,3.96
2023-01-11T05:04:26.944Z,4.00
2023-01-11T05:06:53.630Z,3.95
2023-01-11T05:09:20.474Z,3.85
2023-01-11T05:11:47.398Z,3.81
2023-01-11T05:14:15.523Z,3.75
2023-01-11T05:16:42.846Z,3.66
2023-01-11T05:19:10.135Z,3.60
2023-01-11T05:21:39.365Z,3.65
2023-01-11T05:24:08.814Z,3.56
2023-01-11T05:26:38.177Z,3.50
2023-01-11T05:29:07.034Z,3.55
2023-01-11T05:31:35.137Z,3.54
2023-01-11T05:34:01.832Z,3.57
2023-01-11T05:36:28.873Z,3.67
2023-01-11T05:38:57.211Z,3.58
2023-01-11T05:41:26.025Z,3.57
2023-01-11T05:44:12.673Z,3.55
2023-01-11T05:46:41.586Z,3.30
2023-01-11T05:49:09.461Z,3.19
2023-01-11T05:51:38.130Z,3.06
2023-01-11T05:54:06.775Z,2.86
2023-01-11T05:56:33.980Z,2.91
2023-01-11T05:59:00.639Z,2.93
2023-01-11T06:01:27.364Z,3.03
2023-01-11T06:03:54.011Z,3.04
2023-01-11T06:06:21.265Z,3.04
2023-01-11T06:08:47.893Z,3.01
2023-01-11T06:11:14.991Z,2.98
2023-01-11T06:13:41.720Z,3.03
2023-01-11T06:16:12.722Z,3.04
2023-01-11T06:18:41.965Z,3.07
2023-01-11T06:21:09.882Z,3.06
2023-01-11T06:23:39.599Z,3.14
2023-01-11T06:26:09.108Z,3.19
2023-01-11T06:28:36.989Z,3.15
2023-01-11T06:31:04.566Z,3.24
2023-01-11T06:33:31.352Z,3.43
2023-01-11T06:35:58.985Z,3.51
2023-01-11T06:38:26.240Z,3.64
2023-01-11T06:40:56.729Z,3.69
2023-01-11T06:43:25.016Z,3.66
2023-01-11T06:45:51.920Z,3.65
2023-01-11T06:48:19.683Z,3.67
2023-01-11T06:50:54.607Z,3.79
2023-01-11T06:53:21.977Z,3.85
2023-01-11T06:55:55.984Z,3.86
2023-01-11T06:58:23.841Z,3.89
2023-01-11T07:00:52.026Z,3.98
2023-01-11T07:03:20.466Z,4.07
2023-01-11T07:05:47.414Z,4.08
2023-01-11T07:08:13.943Z,4.08
2023-01-11T07:10:41.101Z,4.01
2023-01-11T07:13:07.924Z,3.94
2023-01-11T07:15:34.918Z,3.92
2023-01-11T07:18:01.854Z,3.95
2023-01-11T07:20:28.872Z,3.87
2023-01-11T07:22:59.996Z,3.97
2023-01-11T07:25:30.389Z,4.04
2023-01-11T07:28:01.981Z,3.85
2023-01-11T07:30:31.314Z,3.73
2023-01-11T07:32:59.178Z,3.83
2023-01-11T07:35:28.195Z,4.00
2023-01-11T07:37:55.901Z,4.01
2023-01-11T07:40:22.468Z,4.17
2023-01-11T07:43:11.597Z,4.03
2023-01-11T07:45:47.323Z,4.00
2023-01-11T07:48:15.572Z,4.12
2023-01-11T07:50:44.768Z,4.29
2023-01-11T07:53:12.844Z,4.36
2023-01-11T07:55:40.231Z,4.46
2023-01-11T07:58:10.686Z,4.39
2023-01-11T08:00:37.257Z,4.54
2023-01-11T08:03:04.059Z,4.50
2023-01-11T08:05:30.688Z,4.37
2023-01-11T08:07:57.457Z,4.50
2023-01-11T08:10:24.350Z,4.57
2023-01-11T08:13:09.739Z,4.66
2023-01-11T08:15:42.571Z,4.84
2023-01-11T08:18:11.576Z,4.93
2023-01-11T08:20:39.067Z,4.90
2023-01-11T08:23:07.903Z,4.87
2023-01-11T08:25:35.353Z,4.92
2023-01-11T08:28:04.272Z,4.87
2023-01-11T08:30:30.860Z,4.94
2023-01-11T08:32:57.792Z,5.12
2023-01-11T08:35:27.292Z,5.28
2023-01-11T08:37:54.360Z,5.42
2023-01-11T08:40:23.728Z,5.44
2023-01-11T08:42:55.008Z,5.41
2023-01-11T08:45:22.187Z,5.57
2023-01-11T08:47:50.787Z,5.82
2023-01-11T08:50:18.642Z,6.06
2023-01-11T08:52:45.620Z,5.98
2023-01-11T08:55:12.149Z,6.11
2023-01-11T08:57:38.975Z,6.32
2023-01-11T09:00:07.670Z,6.25
2023-01-11T09:02:34.573Z,6.31
2023-01-11T09:05:01.164Z,6.86
2023-01-11T09:07:27.866Z,7.49
2023-01-11T09:09:54.606Z,9.47
2023-01-11T09:12:21.301Z,10.22
2023-01-11T09:14:47.831Z,9.88
2023-01-11T09:17:14.446Z,9.67
2023-01-11T09:19:40.955Z,8.96
2023-01-11T09:22:07.505Z,8.11
2023-01-11T09:24:34.089Z,7.44
2023-01-11T09:27:00.799Z,7.19
2023-01-11T09:29:27.545Z,7.10
2023-01-11T09:31:54.125Z,7.14
2023-01-11T09:34:21.184Z,7.24
2023-01-11T09:36:49.011Z,7.10
2023-01-11T09:39:18.801Z,6.92
2023-01-11T09:42:00.246Z,6.83
2023-01-11T09:44:29.730Z,6.87
2023-01-11T09:47:15.669Z,6.94
2023-01-11T09:49:47.269Z,6.92
2023-01-11T09:52:29.922Z,6.97
2023-01-11T09:55:01.397Z,6.98
2023-01-11T09:57:33.689Z,7.04
2023-01-11T10:00:24.073Z,7.05
2023-01-11T10:03:08.669Z,7.10
2023-01-11T10:05:50.087Z,7.21
2023-01-11T10:18:33.077Z,7.47
2023-01-11T10:18:37.723Z,7.46
2023-01-11T10:20:55.369Z,7.55
2023-01-11T10:23:57.464Z,7.51
2023-01-11T10:26:36.093Z,7.50
2023-01-11T10:29:21.684Z,7.57
2023-01-11T10:32:19.963Z,7.56
2023-01-11T10:34:58.335Z,7.60
2023-01-11T10:37:30.719Z,7.66
2023-01-11T10:40:19.573Z,7.66
2023-01-11T10:42:52.744Z,7.65
2023-01-11T10:45:25.488Z,7.68
2023-01-11T10:48:02.743Z,7.86
2023-01-11T10:50:38.236Z,7.91
2023-01-11T10:53:17.129Z,8.02
2023-01-11T10:56:08.476Z,8.01
2023-01-11T10:58:57.908Z,7.99
2023-01-11T11:01:45.331Z,8.08
2023-01-11T11:04:22.617Z,8.04
2023-01-11T11:07:05.472Z,8.12
2023-01-11T11:09:56.088Z,8.21
2023-01-11T11:12:30.921Z,8.32
2023-01-11T11:15:13.356Z,8.51
2023-01-11T11:17:46.088Z,8.55
2023-01-11T11:20:22.325Z,8.80
2023-01-11T11:22:56.809Z,8.93
2023-01-11T11:25:37.372Z,9.16
2023-01-11T11:28:27.423Z,9.32
2023-01-11T11:30:57.265Z,9.72
2023-01-11T11:33:35.472Z,9.93
2023-01-11T11:36:07.967Z,10.15
2023-01-11T11:38:37.313Z,10.27
2023-01-11T11:41:12.950Z,10.18
2023-01-11T11:43:47.620Z,10.23
2023-01-11T11:46:18.733Z,9.93
2023-01-11T11:49:18.063Z,9.84
2023-01-11T11:51:47.074Z,9.74
2023-01-11T11:54:19.680Z,9.68
2023-01-11T11:56:47.418Z,9.62
2023-01-11T11:59:17.865Z,9.49
2023-01-11T12:01:48.441Z,9.32
2023-01-11T12:04:45.034Z,8.96
2023-01-11T12:07:19.384Z,8.73
2023-01-11T12:09:57.559Z,8.70
2023-01-11T12:12:27.886Z,8.65
2023-01-11T12:15:14.523Z,8.70
2023-01-11T12:17:41.544Z,8.64
2023-01-11T12:20:23.064Z,8.72
2023-01-11T12:23:10.363Z,8.88
2023-01-11T12:25:46.036Z,9.11
2023-01-11T12:28:28.145Z,9.22
2023-01-11T12:31:11.143Z,9.30
2023-01-11T12:33:58.709Z,9.23
2023-01-11T12:36:54.893Z,9.27
2023-01-11T12:39:45.657Z,9.33
2023-01-11T12:42:27.416Z,9.30
2023-01-11T12:45:13.461Z,9.24
2023-01-11T12:48:01.517Z,9.34
2023-01-11T12:50:50.948Z,9.42
2023-01-11T12:53:23.487Z,9.43
2023-01-11T12:55:58.274Z,9.29
2023-01-11T12:59:02.005Z,9.18
2023-01-11T13:01:49.965Z,8.82
2023-01-11T13:04:36.769Z,8.96
2023-01-11T13:07:13.938Z,8.91
2023-01-11T13:09:58.838Z,8.82
2023-01-11T13:12:48.016Z,8.79
2023-01-11T13:15:35.651Z,8.78
2023-01-11T13:18:10.775Z,8.85
2023-01-11T13:21:01.409Z,8.69
2023-01-11T13:23:54.741Z,8.79
2023-01-11T13:26:29.702Z,8.66
2023-01-11T13:29:25.633Z,8.68
2023-01-11T13:31:54.389Z,8.55
2023-01-11T13:34:47.457Z,8.48
2023-01-11T13:37:23.932Z,8.42
2023-01-11T13:40:20.278Z,8.38
2023-01-11T13:43:03.753Z,8.39
2023-01-11T13:45:38.919Z,8.33
2023-01-11T13:48:19.338Z,8.21
2023-01-11T13:51:02.743Z,8.13
2023-01-11T13:53:39.426Z,8.14
2023-01-11T13:56:20.289Z,8.14
2023-01-11T13:59:01.642Z,8.05
2023-01-11T14:01:31.341Z,8.07
2023-01-11T14:04:08.407Z,7.99
2023-01-11T14:06:40.788Z,7.88
2023-01-11T14:09:31.939Z,7.76
2023-01-11T14:12:10.497Z,7.73
2023-01-11T14:15:12.251Z,7.77
2023-01-11T14:17:57.899Z,7.69
2023-01-11T14:20:32.747Z,7.76
2023-01-11T14:23:07.615Z,7.73
2023-01-11T14:25:45.375Z,7.56
2023-01-11T14:28:18.573Z,7.45
2023-01-11T14:31:06.713Z,7.47
2023-01-11T14:34:10.981Z,7.39
2023-01-11T14:36:47.520Z,7.31
2023-01-11T14:39:37.120Z,7.17
2023-01-11T14:42:34.369Z,7.12
2023-01-11T14:45:04.584Z,7.10
2023-01-11T14:47:59.077Z,7.11
2023-01-11T14:50:56.035Z,7.05
2023-01-11T14:53:42.611Z,7.04
2023-01-11T14:56:33.692Z,6.90
2023-01-11T14:59:20.946Z,6.89
2023-01-11T15:02:02.933Z,6.93
2023-01-11T15:04:58.614Z,6.94
2023-01-11T15:07:34.217Z,6.89
2023-01-11T15:10:04.497Z,6.91
2023-01-11T15:12:34.215Z,6.91
2023-01-11T15:15:12.818Z,6.80
2023-01-11T15:17:59.287Z,6.73
2023-01-11T15:20:26.738Z,6.52
2023-01-11T15:22:58.660Z,6.48
2023-01-11T15:25:33.552Z,6.61
2023-01-11T15:28:04.331Z,6.61
2023-01-11T15:30:30.932Z,6.68
2023-01-11T15:33:19.480Z,6.68
2023-01-11T15:35:55.449Z,6.62
2023-01-11T15:38:40.651Z,6.62
2023-01-11T15:41:32.320Z,6.53
2023-01-11T15:44:36.128Z,6.44
2023-01-11T15:47:05.696Z,6.49
2023-01-11T15:49:46.694Z,6.47
2023-01-11T15:52:26.144Z,6.49
2023-01-11T15:55:17.085Z,6.42
2023-01-11T15:57:52.734Z,6.43
2023-01-11T16:00:56.807Z,6.39
2023-01-11T16:03:46.943Z,6.36
2023-01-11T16:06:31.911Z,6.31
2023-01-11T16:09:26.351Z,6.31
2023-01-11T16:12:22.846Z,6.27
2023-01-11T16:15:11.009Z,6.40
2023-01-11T16:17:41.032Z,6.29
2023-01-11T16:20:19.754Z,6.42
2023-01-11T16:23:02.580Z,6.52
2023-01-11T16:25:32.344Z,6.65
2023-01-11T16:28:00.278Z,6.67
2023-01-11T16:30:28.190Z,6.73
2023-01-11T16:33:14.384Z,6.73
2023-01-11T16:35:41.053Z,6.74
2023-01-11T16:38:16.041Z,6.79
2023-01-11T16:40:46.203Z,6.70
2023-01-11T16:43:25.411Z,6.78
2023-01-11T16:45:56.236Z,6.76
2023-01-11T16:48:25.101Z,6.68
2023-01-11T16:51:08.443Z,6.67
2023-01-11T16:53:37.433Z,6.66
2023-01-11T16:56:18.256Z,6.70
2023-01-11T16:59:06.889Z,6.70
2023-01-11T17:01:53.174Z,6.51
2023-01-11T17:04:31.515Z,6.57
2023-01-11T17:07:13.336Z,6.51
2023-01-11T17:09:42.993Z,6.55
2023-01-11T17:12:16.643Z,6.62
2023-01-11T17:15:00.521Z,6.56
2023-01-11T17:17:28.060Z,6.53
2023-01-11T17:19:58.782Z,6.55
2023-01-11T17:22:45.715Z,6.46
2023-01-11T17:25:19.909Z,6.49
2023-01-11T17:27:54.723Z,6.56
2023-01-11T17:30:26.237Z,6.58
2023-01-11T17:32:55.279Z,6.54
2023-01-11T17:35:36.562Z,6.44
2023-01-11T17:38:05.921Z,6.41
2023-01-11T17:40:38.709Z,6.40
2023-01-11T17:43:42.963Z,6.45
2023-01-11T17:46:18.226Z,6.41
2023-01-11T17:48:54.119Z,6.42
2023-01-11T17:51:34.971Z,6.41
2023-01-11T17:54:01.773Z,6.42
2023-01-11T17:56:41.911Z,6.40
2023-01-11T17:59:11.472Z,6.48
2023-01-11T18:01:38.567Z,6.43
2023-01-11T18:04:05.678Z,6.42
2023-01-11T18:06:36.608Z,6.43
2023-01-11T18:09:06.451Z,6.34
2023-01-11T18:11:41.470Z,6.33
2023-01-11T18:14:19.461Z,6.39
2023-01-11T18:16:58.859Z,6.39
2023-01-11T18:19:34.774Z,6.40
2023-01-11T18:22:01.601Z,6.40
2023-01-11T18:24:33.820Z,6.47
2023-01-11T18:27:15.372Z,6.49
2023-01-11T18:29:44.543Z,6.55
2023-01-11T18:32:12.983Z,6.55
2023-01-11T18:34:40.055Z,6.54
2023-01-11T18:37:06.670Z,6.49
2023-01-11T18:39:36.663Z,6.48
2023-01-11T18:42:08.014Z,6.45
2023-01-11T18:44:42.762Z,6.54
2023-01-11T18:47:24.760Z,6.56
2023-01-11T18:49:52.620Z,6.55
2023-01-11T18:52:20.979Z,6.53
2023-01-11T18:54:48.111Z,6.46
2023-01-11T18:57:14.775Z,6.49
2023-01-11T18:59:41.466Z,6.48
2023-01-11T19:04:51.219Z,6.44
2023-01-11T19:07:18.941Z,6.38
2023-01-11T19:09:45.608Z,6.42
2023-01-11T19:12:13.262Z,6.41
2023-01-11T19:14:40.572Z,6.44
2023-01-11T19:17:08.259Z,6.47
2023-01-11T19:19:34.982Z,6.46
2023-01-11T19:22:01.701Z,6.54
2023-01-11T19:24:28.306Z,6.60
2023-01-11T19:26:55.253Z,6.59
2023-01-11T19:29:24.628Z,6.57
2023-01-11T19:31:52.756Z,6.59
2023-01-11T19:34:19.823Z,6.59
2023-01-11T19:36:46.575Z,6.60
2023-01-11T19:39:13.202Z,6.58
2023-01-11T19:41:55.187Z,6.67
2023-01-11T19:44:23.012Z,6.68
2023-01-11T19:46:57.088Z,6.70
2023-01-11T19:49:36.174Z,6.66
2023-01-11T19:52:02.955Z,6.63
2023-01-11T19:54:29.487Z,6.53
2023-01-11T19:56:56.291Z,6.52
2023-01-11T19:59:22.829Z,6.41
2023-01-11T20:01:49.423Z,6.42
2023-01-11T20:04:16.441Z,6.38
2023-01-11T20:06:50.360Z,6.34
2023-01-11T20:09:18.422Z,6.29
2023-01-11T20:11:45.706Z,6.27
2023-01-11T20:14:12.527Z,6.25
2023-01-11T20:16:39.090Z,6.31
2023-01-11T20:19:05.684Z,6.18
2023-01-11T20:21:34.208Z,6.08
2023-01-11T20:24:02.299Z,6.10
2023-01-11T20:26:30.655Z,6.05
2023-01-11T20:28:58.245Z,6.05
2023-01-11T20:31:28.240Z,6.07
2023-01-11T20:33:56.034Z,6.17
2023-01-11T20:36:23.224Z,6.09
2023-01-11T20:38:49.949Z,6.04
2023-01-11T20:41:37.864Z,6.05
2023-01-11T20:44:06.090Z,5.96
2023-01-11T20:46:33.446Z,5.92
2023-01-11T20:49:00.060Z,6.01
2023-01-11T20:51:27.005Z,6.05
2023-01-11T20:53:53.651Z,6.14
2023-01-11T20:56:20.227Z,6.16
2023-01-11T20:58:48.241Z,6.22
2023-01-11T21:01:16.535Z,6.25
2023-01-11T21:03:43.115Z,6.32
2023-01-11T21:06:10.042Z,6.27
2023-01-11T21:08:37.377Z,6.23
2023-01-11T21:11:08.377Z,6.27
2023-01-11T21:13:35.599Z,6.30
2023-01-11T21:16:14.087Z,6.32
2023-01-11T21:18:43.897Z,6.36
2023-01-11T21:21:15.615Z,6.38
2023-01-11T21:23:42.321Z,6.33
2023-01-11T21:26:18.653Z,6.33
2023-01-11T21:28:49.860Z,6.34
2023-01-11T21:31:17.887Z,6.40
2023-01-11T21:33:44.496Z,6.40
2023-01-11T21:36:13.830Z,6.30
2023-01-11T21:38:40.673Z,6.34
2023-01-11T21:41:08.413Z,6.42
2023-01-11T21:43:35.953Z,6.47
2023-01-11T21:46:04.775Z,6.47
2023-01-11T21:48:32.117Z,6.38
2023-01-11T21:50:58.730Z,6.46
2023-01-11T21:53:29.490Z,6.28
2023-01-11T21:55:56.531Z,6.32
2023-01-11T21:58:23.077Z,6.34
2023-01-11T22:00:49.661Z,6.30
2023-01-11T22:03:16.272Z,6.22
2023-01-11T22:05:42.761Z,6.25
2023-01-11T22:08:09.280Z,6.36
2023-01-11T22:10:35.901Z,6.36
2023-01-11T22:13:02.529Z,6.28
2023-01-11T22:15:29.048Z,6.27
2023-01-11T22:17:55.686Z,6.31
2023-01-11T22:20:22.211Z,6.32
2023-01-11T22:22:48.840Z,6.34
2023-01-11T22:25:15.635Z,6.30
2023-01-11T22:27:42.226Z,6.36
2023-01-11T22:30:09.461Z,6.31
2023-01-11T22:32:35.969Z,6.22
2023-01-11T22:35:02.609Z,6.21
2023-01-11T22:37:29.117Z,6.17
2023-01-11T22:39:55.628Z,6.11
2023-01-11T22:42:22.174Z,6.04
2023-01-11T22:44:50.044Z,6.08
2023-01-11T22:47:16.549Z,6.11
2023-01-11T22:49:43.101Z,6.07
2023-01-11T22:52:09.645Z,6.14
2023-01-11T22:54:36.179Z,6.15
2023-01-11T22:57:02.795Z,6.13
2023-01-11T22:59:29.358Z,6.21
2023-01-11T23:01:55.917Z,6.22
2023-01-11T23:04:22.581Z,6.20
2023-01-11T23:06:49.259Z,6.18
2023-01-11T23:09:16.902Z,6.19
2023-01-11T23:12:02.830Z,6.23
2023-01-11T23:14:31.099Z,6.20
2023-01-11T23:17:08.135Z,6.21
2023-01-11T23:19:39.938Z,6.15
2023-01-11T23:22:07.695Z,6.09
2023-01-11T23:24:36.021Z,6.12
2023-01-11T23:27:02.681Z,6.10
2023-01-11T23:29:29.240Z,6.06
2023-01-11T23:31:55.810Z,6.02
2023-01-11T23:34:22.928Z,5.97
2023-01-11T23:36:49.449Z,5.95
2023-01-11T23:39:18.817Z,5.81
2023-01-11T23:42:04.440Z,5.83
2023-01-11T23:44:31.329Z,5.89
2023-01-11T23:47:16.354Z,5.91
2023-01-11T23:49:43.782Z,5.86
2023-01-11T23:52:11.273Z,5.81
2023-01-11T23:54:37.874Z,5.84
2023-01-11T23:57:04.519Z,5.83
2023-01-11T23:59:31.579Z,5.82
